createdAt,value
2022-08-04T00:02:24.929Z,19.00
2022-08-04T00:05:06.042Z,19.00
2022-08-04T00:07:44.258Z,18.90
2022-08-04T00:10:13.636Z,18.80
2022-08-04T00:12:47.145Z,18.80
2022-08-04T00:15:16.857Z,18.60
2022-08-04T00:17:59.199Z,18.50
2022-08-04T00:20:30.680Z,18.50
2022-08-04T00:22:59.702Z,18.50
2022-08-04T00:25:26.620Z,18.50
2022-08-04T00:27:54.418Z,18.50
2022-08-04T00:30:21.289Z,18.40
2022-08-04T00:32:48.152Z,18.40
2022-08-04T00:35:15.310Z,18.40
2022-08-04T00:37:45.369Z,18.40
2022-08-04T00:40:15.378Z,18.40
2022-08-04T00:42:59.499Z,18.20
2022-08-04T00:46:15.764Z,18.20
2022-08-04T00:48:53.534Z,18.20
2022-08-04T00:51:32.841Z,18.30
2022-08-04T00:54:11.700Z,18.20
2022-08-04T00:57:30.124Z,18.20
2022-08-04T01:00:14.997Z,18.20
2022-08-04T01:03:10.611Z,18.20
2022-08-04T01:06:22.935Z,18.20
2022-08-04T01:09:11.046Z,18.20
2022-08-04T01:11:59.617Z,18.20
2022-08-04T01:14:45.570Z,18.10
2022-08-04T01:17:25.928Z,18.10
2022-08-04T01:20:08.597Z,18.10
2022-08-04T01:22:53.775Z,18.00
2022-08-04T01:25:39.286Z,18.00
2022-08-04T01:28:32.919Z,18.00
2022-08-04T01:31:12.899Z,17.90
2022-08-04T01:33:58.613Z,17.90
2022-08-04T01:36:35.787Z,17.90
2022-08-04T01:39:24.801Z,17.80
2022-08-04T01:41:58.120Z,17.80
2022-08-04T01:44:28.886Z,17.80
2022-08-04T01:46:55.819Z,17.70
2022-08-04T01:49:27.702Z,17.70
2022-08-04T01:51:55.974Z,17.70
2022-08-04T01:54:23.469Z,17.70
2022-08-04T01:56:51.046Z,17.70
2022-08-04T01:59:20.155Z,17.50
2022-08-04T02:01:47.683Z,17.60
2022-08-04T02:04:18.687Z,17.60
2022-08-04T02:07:27.469Z,17.60
2022-08-04T02:10:07.754Z,17.50
2022-08-04T02:12:56.509Z,17.60
2022-08-04T02:15:30.889Z,17.70
2022-08-04T02:18:03.890Z,17.60
2022-08-04T02:20:37.903Z,17.50
2022-08-04T02:23:08.485Z,17.50
2022-08-04T02:25:40.630Z,17.40
2022-08-04T02:28:16.143Z,17.40
2022-08-04T02:31:10.227Z,17.30
2022-08-04T02:33:49.697Z,17.30
2022-08-04T02:36:35.996Z,17.20
2022-08-04T02:39:05.805Z,17.30
2022-08-04T02:41:34.071Z,17.20
2022-08-04T02:44:06.085Z,17.20
2022-08-04T02:46:34.561Z,17.20
2022-08-04T02:49:06.898Z,17.20
2022-08-04T02:51:47.358Z,17.20
2022-08-04T02:54:31.706Z,17.20
2022-08-04T02:57:01.851Z,17.20
2022-08-04T02:59:36.803Z,17.20
2022-08-04T03:02:03.562Z,17.20
2022-08-04T03:04:54.022Z,17.10
2022-08-04T03:08:11.566Z,17.10
2022-08-04T03:11:05.542Z,17.10
2022-08-04T03:14:19.083Z,17.10
2022-08-04T03:17:20.026Z,17.10
2022-08-04T03:20:08.070Z,17.10
2022-08-04T03:23:12.480Z,16.90
2022-08-04T03:26:15.386Z,17.00
2022-08-04T03:29:08.945Z,17.00
2022-08-04T03:32:00.219Z,16.90
2022-08-04T03:35:01.367Z,16.90
2022-08-04T03:38:05.577Z,16.80
2022-08-04T03:41:03.009Z,16.80
2022-08-04T03:44:06.232Z,16.70
2022-08-04T03:47:17.169Z,16.70
2022-08-04T03:50:22.765Z,16.70
2022-08-04T03:53:19.738Z,16.70
2022-08-04T03:56:05.258Z,16.60
2022-08-04T03:58:49.759Z,16.60
2022-08-04T04:01:16.347Z,16.50
2022-08-04T04:03:51.879Z,16.60
2022-08-04T04:06:52.896Z,16.50
2022-08-04T04:09:57.600Z,16.50
2022-08-04T04:13:06.883Z,16.60
2022-08-04T04:16:04.730Z,16.50
2022-08-04T04:19:16.309Z,16.50
2022-08-04T04:22:25.882Z,16.60
2022-08-04T04:24:59.296Z,16.60
2022-08-04T04:27:31.797Z,16.60
2022-08-04T04:30:23.348Z,16.60
2022-08-04T04:32:57.790Z,16.70
2022-08-04T04:35:35.847Z,16.70
2022-08-04T04:38:24.275Z,16.80
2022-08-04T04:41:24.658Z,16.90
2022-08-04T04:44:30.882Z,16.90
2022-08-04T04:47:14.325Z,17.00
2022-08-04T04:50:03.279Z,16.90
2022-08-04T04:53:01.727Z,16.80
2022-08-04T04:55:34.992Z,16.90
2022-08-04T04:58:02.312Z,16.90
2022-08-04T05:01:04.656Z,17.10
2022-08-04T05:03:55.983Z,17.10
2022-08-04T05:06:28.505Z,17.20
2022-08-04T05:09:32.968Z,17.10
2022-08-04T05:14:31.938Z,17.10
2022-08-04T05:15:12.321Z,17.20
2022-08-04T05:17:42.670Z,17.00
2022-08-04T05:20:42.022Z,16.90
2022-08-04T05:23:24.903Z,16.90
2022-08-04T05:26:16.736Z,17.20
2022-08-04T05:28:55.962Z,17.40
2022-08-04T05:31:31.065Z,17.60
2022-08-04T05:34:13.831Z,17.80
2022-08-04T05:36:48.281Z,18.00
2022-08-04T05:39:19.953Z,18.20
2022-08-04T05:41:55.196Z,18.30
2022-08-04T05:44:26.151Z,18.70
2022-08-04T05:46:56.829Z,19.40
2022-08-04T05:49:26.019Z,19.90
2022-08-04T05:51:55.953Z,20.10
2022-08-04T05:54:24.352Z,20.30
2022-08-04T05:56:51.576Z,20.50
2022-08-04T05:59:20.545Z,21.00
2022-08-04T06:01:55.112Z,21.10
2022-08-04T06:04:30.215Z,21.00
2022-08-04T06:06:57.030Z,21.40
2022-08-04T06:09:23.998Z,22.00
2022-08-04T06:12:03.335Z,22.50
2022-08-04T06:14:39.497Z,22.90
2022-08-04T06:18:41.140Z,23.50
2022-08-04T06:20:18.293Z,23.80
2022-08-04T06:22:46.346Z,24.10
2022-08-04T06:25:17.927Z,24.20
2022-08-04T06:27:45.013Z,24.40
2022-08-04T06:30:14.547Z,24.40
2022-08-04T06:33:04.064Z,24.60
2022-08-04T06:35:32.511Z,24.90
2022-08-04T06:38:01.255Z,25.20
2022-08-04T06:40:31.401Z,25.60
2022-08-04T06:43:06.227Z,26.30
2022-08-04T06:45:35.625Z,26.60
2022-08-04T06:48:04.809Z,26.90
2022-08-04T06:51:29.302Z,27.70
2022-08-04T06:53:19.714Z,28.20
2022-08-04T06:55:48.799Z,28.50
2022-08-04T06:58:17.480Z,29.10
2022-08-04T07:00:45.694Z,29.10
2022-08-04T07:03:13.551Z,29.30
2022-08-04T07:05:41.555Z,29.60
2022-08-04T07:08:11.289Z,30.10
2022-08-04T07:10:38.779Z,29.90
2022-08-04T07:13:07.243Z,29.80
2022-08-04T07:15:35.780Z,29.90
2022-08-04T07:18:04.611Z,30.30
2022-08-04T07:20:36.161Z,31.30
2022-08-04T07:23:07.281Z,31.40
2022-08-04T07:25:59.093Z,31.70
2022-08-04T07:28:24.542Z,32.10
2022-08-04T07:30:52.566Z,31.60
2022-08-04T07:33:19.938Z,31.30
2022-08-04T07:36:05.353Z,31.80
2022-08-04T07:38:37.920Z,32.40
2022-08-04T07:41:37.257Z,32.80
2022-08-04T07:44:05.165Z,32.70
2022-08-04T07:46:32.248Z,32.70
2022-08-04T07:49:04.241Z,32.80
2022-08-04T07:51:31.442Z,33.00
2022-08-04T07:54:00.211Z,33.00
2022-08-04T07:56:27.782Z,33.00
2022-08-04T07:58:54.878Z,33.60
2022-08-04T08:01:22.646Z,34.20
2022-08-04T08:03:50.725Z,34.50
2022-08-04T08:06:32.362Z,35.10
2022-08-04T08:09:13.070Z,35.90
2022-08-04T08:12:37.864Z,36.30
2022-08-04T08:14:35.506Z,36.00
2022-08-04T08:17:03.188Z,36.00
2022-08-04T08:19:31.063Z,36.20
2022-08-04T08:22:00.514Z,37.00
2022-08-04T08:24:34.652Z,38.10
2022-08-04T08:27:04.467Z,38.80
2022-08-04T08:29:34.294Z,38.90
2022-08-04T08:32:07.809Z,38.50
2022-08-04T08:34:35.462Z,38.60
2022-08-04T08:37:23.616Z,38.80
2022-08-04T08:39:57.619Z,39.10
2022-08-04T08:42:45.829Z,40.00
2022-08-04T08:45:48.685Z,40.80
2022-08-04T08:48:59.098Z,40.50
2022-08-04T08:52:07.240Z,39.60
2022-08-04T08:55:07.570Z,40.00
2022-08-04T08:58:00.382Z,40.00
2022-08-04T09:00:36.611Z,40.40
2022-08-04T09:03:44.521Z,40.60
2022-08-04T09:06:32.963Z,41.10
2022-08-04T09:09:17.764Z,41.30
2022-08-04T09:11:55.978Z,41.50
2022-08-04T09:14:34.966Z,42.10
2022-08-04T09:17:07.012Z,43.30
2022-08-04T09:19:49.986Z,43.40
2022-08-04T09:22:22.437Z,42.80
2022-08-04T09:25:04.706Z,43.60
2022-08-04T09:27:52.639Z,44.20
2022-08-04T09:30:23.395Z,43.90
2022-08-04T09:33:45.555Z,43.70
2022-08-04T09:36:39.584Z,43.50
2022-08-04T09:39:20.745Z,44.40
2022-08-04T09:42:26.033Z,44.30
2022-08-04T09:45:26.675Z,44.70
2022-08-04T09:48:34.147Z,44.60
2022-08-04T09:51:10.364Z,43.90
2022-08-04T09:53:52.382Z,43.80
2022-08-04T09:56:32.262Z,44.10
2022-08-04T09:59:19.972Z,45.40
2022-08-04T10:01:49.731Z,45.30
2022-08-04T10:04:30.964Z,45.40
2022-08-04T10:07:29.652Z,45.70
2022-08-04T10:10:19.183Z,44.90
2022-08-04T10:12:51.626Z,44.90
2022-08-04T10:15:28.107Z,45.10
2022-08-04T10:18:02.350Z,45.50
2022-08-04T10:21:06.961Z,44.70
2022-08-04T10:24:00.036Z,44.70
2022-08-04T10:26:48.454Z,45.00
2022-08-04T10:29:41.071Z,45.00
2022-08-04T10:32:21.149Z,45.10
2022-08-04T10:35:04.490Z,44.50
2022-08-04T10:37:59.971Z,44.50
2022-08-04T10:40:36.931Z,44.80
2022-08-04T10:43:41.459Z,45.50
2022-08-04T10:46:15.127Z,45.80
2022-08-04T10:48:50.553Z,45.70
2022-08-04T10:51:58.607Z,43.90
2022-08-04T10:54:47.906Z,42.40
2022-08-04T10:57:19.454Z,41.70
2022-08-04T11:00:03.490Z,41.50
2022-08-04T11:02:55.062Z,41.50
2022-08-04T11:05:34.265Z,42.90
2022-08-04T11:08:34.577Z,44.20
2022-08-04T11:11:58.368Z,43.60
2022-08-04T11:14:46.802Z,42.40
2022-08-04T11:17:22.682Z,41.00
2022-08-04T11:20:34.681Z,40.30
2022-08-04T11:23:10.499Z,39.60
2022-08-04T11:26:02.023Z,40.10
2022-08-04T11:29:03.224Z,39.70
2022-08-04T11:31:43.363Z,39.00
2022-08-04T11:34:22.999Z,40.50
2022-08-04T11:37:18.090Z,41.60
2022-08-04T11:39:53.994Z,41.90
2022-08-04T11:42:31.206Z,41.90
2022-08-04T11:45:15.306Z,41.10
2022-08-04T11:47:47.587Z,41.10
2022-08-04T11:50:23.890Z,41.90
2022-08-04T11:52:53.766Z,42.60
2022-08-04T11:55:22.973Z,44.30
2022-08-04T11:57:54.020Z,44.50
2022-08-04T12:00:22.819Z,44.80
2022-08-04T12:03:11.929Z,45.70
2022-08-04T12:05:53.690Z,46.40
2022-08-04T12:08:41.889Z,44.50
2022-08-04T12:11:30.548Z,42.40
2022-08-04T12:14:26.690Z,41.40
2022-08-04T12:16:56.151Z,40.70
2022-08-04T12:20:03.139Z,40.50
2022-08-04T12:22:35.846Z,40.80
2022-08-04T12:25:21.646Z,40.30
2022-08-04T12:28:01.219Z,39.60
2022-08-04T12:30:58.484Z,39.00
2022-08-04T12:34:03.093Z,38.50
2022-08-04T12:36:33.594Z,38.30
2022-08-04T12:39:11.572Z,38.10
2022-08-04T12:42:06.179Z,38.00
2022-08-04T12:44:39.288Z,37.70
2022-08-04T12:47:27.318Z,37.10
2022-08-04T12:50:01.449Z,36.80
2022-08-04T12:53:04.006Z,36.60
2022-08-04T12:55:37.081Z,36.50
2022-08-04T12:58:12.218Z,36.50
2022-08-04T13:00:42.033Z,36.30
2022-08-04T13:03:14.842Z,35.70
2022-08-04T13:05:43.049Z,35.40
2022-08-04T13:08:13.703Z,35.30
2022-08-04T13:10:46.547Z,35.30
2022-08-04T13:13:24.789Z,35.30
2022-08-04T13:16:00.722Z,35.20
2022-08-04T13:18:32.387Z,35.40
2022-08-04T13:21:20.244Z,35.40
2022-08-04T13:24:19.825Z,35.50
2022-08-04T13:27:08.934Z,35.50
2022-08-04T13:29:59.624Z,35.50
2022-08-04T13:32:26.797Z,35.60
2022-08-04T13:34:56.047Z,35.70
2022-08-04T13:37:26.711Z,35.70
2022-08-04T13:39:56.441Z,35.50
2022-08-04T13:42:25.699Z,35.40
2022-08-04T13:44:56.876Z,35.40
2022-08-04T13:47:28.932Z,35.40
2022-08-04T13:50:14.935Z,35.40
2022-08-04T13:52:42.897Z,35.30
2022-08-04T13:55:32.367Z,35.20
2022-08-04T13:58:07.292Z,34.80
2022-08-04T14:01:03.153Z,34.70
2022-08-04T14:03:54.092Z,34.70
2022-08-04T14:06:29.314Z,34.70
2022-08-04T14:09:15.623Z,34.80
2022-08-04T14:12:07.060Z,34.90
2022-08-04T14:14:35.040Z,34.90
2022-08-04T14:17:05.701Z,34.90
2022-08-04T14:20:00.877Z,35.40
2022-08-04T14:22:27.773Z,35.50
2022-08-04T14:25:16.155Z,35.80
2022-08-04T14:27:57.341Z,35.90
2022-08-04T14:30:33.310Z,36.00
2022-08-04T14:34:01.838Z,36.00
2022-08-04T14:35:59.112Z,36.00
2022-08-04T14:39:01.446Z,35.90
2022-08-04T14:41:31.505Z,36.00
2022-08-04T14:44:00.128Z,36.00
2022-08-04T14:46:35.971Z,36.00
2022-08-04T14:49:11.954Z,36.00
2022-08-04T14:51:41.924Z,36.00
2022-08-04T14:54:14.358Z,35.70
2022-08-04T14:56:57.899Z,35.40
2022-08-04T14:59:25.350Z,35.10
2022-08-04T15:02:00.214Z,34.70
2022-08-04T15:04:29.354Z,34.50
2022-08-04T15:06:56.205Z,34.40
2022-08-04T15:09:23.397Z,34.20
2022-08-04T15:11:50.129Z,34.20
2022-08-04T15:14:37.236Z,34.50
2022-08-04T15:17:05.268Z,34.70
2022-08-04T15:19:36.859Z,34.90
2022-08-04T15:22:04.540Z,35.10
2022-08-04T15:24:31.209Z,34.90
2022-08-04T15:27:00.067Z,34.80
2022-08-04T15:30:00.605Z,34.60
2022-08-04T15:32:35.703Z,34.50
2022-08-04T15:35:08.484Z,34.30
2022-08-04T15:37:54.926Z,34.30
2022-08-04T15:40:44.541Z,34.40
2022-08-04T15:43:33.009Z,34.30
2022-08-04T15:46:42.864Z,34.20
2022-08-04T15:48:52.117Z,34.20
2022-08-04T15:51:32.781Z,34.10
2022-08-04T15:54:02.965Z,34.10
2022-08-04T15:56:30.980Z,34.20
2022-08-04T15:58:58.190Z,34.20
2022-08-04T16:01:25.460Z,34.40
2022-08-04T16:03:58.214Z,34.60
2022-08-04T16:06:28.859Z,34.90
2022-08-04T16:09:03.553Z,35.00
2022-08-04T16:11:32.448Z,35.00
2022-08-04T16:13:59.759Z,34.90
2022-08-04T16:16:52.928Z,34.90
2022-08-04T16:19:36.209Z,34.70
2022-08-04T16:22:03.788Z,34.20
2022-08-04T16:24:38.660Z,33.90
2022-08-04T16:27:10.826Z,33.70
2022-08-04T16:29:45.500Z,33.50
2022-08-04T16:32:23.833Z,33.30
2022-08-04T16:35:05.606Z,33.00
2022-08-04T16:37:38.626Z,32.80
2022-08-04T16:40:35.797Z,32.50
2022-08-04T16:43:08.856Z,32.40
2022-08-04T16:45:49.086Z,32.30
2022-08-04T16:48:18.667Z,32.20
2022-08-04T16:50:47.548Z,32.10
2022-08-04T16:53:52.671Z,32.00
2022-08-04T16:56:05.323Z,31.90
2022-08-04T16:58:34.556Z,31.70
2022-08-04T17:01:08.949Z,31.70
2022-08-04T17:03:38.223Z,31.60
2022-08-04T17:06:17.393Z,31.50
2022-08-04T17:08:45.566Z,31.40
2022-08-04T17:11:15.246Z,31.30
2022-08-04T17:14:04.011Z,31.00
2022-08-04T17:16:37.695Z,30.70
2022-08-04T17:19:06.476Z,30.40
2022-08-04T17:21:35.105Z,30.20
2022-08-04T17:24:14.479Z,30.00
2022-08-04T17:26:53.888Z,29.80
2022-08-04T17:29:43.400Z,29.70
2022-08-04T17:32:15.563Z,29.50
2022-08-04T17:34:46.093Z,29.40
2022-08-04T17:37:38.816Z,29.30
2022-08-04T17:40:11.091Z,29.20
2022-08-04T17:42:39.846Z,29.10
2022-08-04T17:45:50.199Z,29.10
2022-08-04T17:47:55.923Z,29.00
2022-08-04T17:50:26.993Z,29.00
2022-08-04T17:53:12.155Z,28.90
2022-08-04T17:58:32.963Z,28.80
2022-08-04T18:01:16.678Z,28.80
2022-08-04T18:03:52.972Z,28.60
2022-08-04T18:06:20.958Z,28.50
2022-08-04T18:08:59.366Z,28.50
2022-08-04T18:11:55.771Z,28.50
2022-08-04T18:14:28.739Z,28.40
2022-08-04T18:16:56.179Z,28.40
2022-08-04T18:19:23.067Z,28.40
2022-08-04T18:21:59.275Z,28.40
2022-08-04T18:24:34.324Z,28.30
2022-08-04T18:27:06.554Z,28.30
2022-08-04T18:29:34.453Z,28.30
2022-08-04T18:32:06.970Z,28.30
2022-08-04T18:34:40.658Z,28.30
2022-08-04T18:38:05.488Z,28.30
2022-08-04T18:40:26.766Z,28.20
2022-08-04T18:42:56.419Z,28.00
2022-08-04T18:45:24.174Z,28.00
2022-08-04T18:48:01.851Z,27.90
2022-08-04T18:50:59.524Z,27.80
2022-08-04T18:53:16.445Z,27.70
2022-08-04T18:55:57.432Z,27.60
2022-08-04T18:58:27.554Z,27.50
2022-08-04T19:00:55.894Z,27.50
2022-08-04T19:03:23.497Z,27.40
2022-08-04T19:05:51.426Z,27.20
2022-08-04T19:08:33.217Z,27.10
2022-08-04T19:11:35.257Z,27.00
2022-08-04T19:13:57.720Z,26.80
2022-08-04T19:16:29.957Z,26.70
2022-08-04T19:18:58.427Z,26.60
2022-08-04T19:22:00.836Z,26.60
2022-08-04T19:24:32.917Z,26.60
2022-08-04T19:27:02.291Z,26.50
2022-08-04T19:29:37.847Z,26.50
2022-08-04T19:32:14.950Z,26.50
2022-08-04T19:34:46.069Z,26.50
2022-08-04T19:37:56.139Z,26.30
2022-08-04T19:40:04.585Z,26.20
2022-08-04T19:42:31.662Z,26.10
2022-08-04T19:44:58.363Z,26.10
2022-08-04T19:48:17.065Z,26.00
2022-08-04T19:50:15.594Z,26.00
2022-08-04T19:52:51.418Z,25.80
2022-08-04T19:55:22.576Z,25.80
2022-08-04T19:57:50.438Z,25.80
2022-08-04T20:00:32.874Z,25.60
2022-08-04T20:03:03.698Z,25.60
2022-08-04T20:05:53.349Z,25.40
2022-08-04T20:08:24.074Z,25.30
2022-08-04T20:10:52.326Z,25.20
2022-08-04T20:13:25.363Z,25.00
2022-08-04T20:15:58.930Z,25.00
2022-08-04T20:18:35.545Z,24.90
2022-08-04T20:21:03.828Z,24.60
2022-08-04T20:23:48.162Z,24.50
2022-08-04T20:26:17.653Z,24.40
2022-08-04T20:31:31.656Z,24.20
2022-08-04T20:33:58.661Z,24.10
2022-08-04T20:36:25.514Z,24.00
2022-08-04T20:38:54.512Z,23.80
2022-08-04T20:41:22.185Z,23.70
2022-08-04T20:43:49.744Z,23.70
2022-08-04T20:46:29.617Z,23.50
2022-08-04T20:48:57.687Z,23.40
2022-08-04T20:51:31.811Z,23.40
2022-08-04T20:54:01.461Z,23.40
2022-08-04T20:56:30.592Z,23.30
2022-08-04T20:58:59.594Z,23.20
2022-08-04T21:01:29.509Z,23.20
2022-08-04T21:04:27.773Z,23.10
2022-08-04T21:06:56.308Z,23.00
2022-08-04T21:09:37.087Z,23.00
2022-08-04T21:12:07.123Z,23.00
2022-08-04T21:14:34.693Z,22.90
2022-08-04T21:17:02.965Z,22.80
2022-08-04T21:19:31.643Z,22.80
2022-08-04T21:21:58.747Z,22.70
2022-08-04T21:24:26.235Z,22.60
2022-08-04T21:26:56.741Z,22.60
2022-08-04T21:29:35.300Z,22.50
2022-08-04T21:32:07.550Z,22.40
2022-08-04T21:34:39.618Z,22.50
2022-08-04T21:37:09.310Z,22.40
2022-08-04T21:39:50.224Z,22.30
2022-08-04T21:42:27.932Z,22.40
2022-08-04T21:45:09.887Z,22.20
2022-08-04T21:47:46.789Z,22.20
2022-08-04T21:50:19.666Z,22.10
2022-08-04T21:52:48.545Z,22.20
2022-08-04T21:55:15.886Z,22.30
2022-08-04T21:57:42.761Z,22.30
2022-08-04T22:02:57.305Z,22.70
2022-08-04T22:05:24.206Z,22.80
2022-08-04T22:07:52.062Z,23.00
2022-08-04T22:10:32.721Z,23.10
2022-08-04T22:13:06.715Z,23.20
2022-08-04T22:16:05.189Z,23.30
2022-08-04T22:18:24.667Z,23.30
2022-08-04T22:20:54.366Z,23.40
2022-08-04T22:23:24.222Z,23.40
2022-08-04T22:25:55.539Z,23.50
2022-08-04T22:28:24.596Z,23.50
2022-08-04T22:30:55.374Z,23.40
2022-08-04T22:33:22.786Z,23.50
2022-08-04T22:35:50.120Z,23.50
2022-08-04T22:38:29.072Z,23.50
2022-08-04T22:41:09.781Z,23.40
2022-08-04T22:43:37.522Z,23.40
2022-08-04T22:46:26.213Z,23.30
2022-08-04T22:48:53.588Z,23.40
2022-08-04T22:51:22.488Z,23.40
2022-08-04T22:53:50.871Z,23.40
2022-08-04T22:56:37.261Z,23.50
2022-08-04T22:59:06.126Z,23.50
2022-08-04T23:01:59.693Z,23.60
2022-08-04T23:04:22.575Z,23.60
2022-08-04T23:06:50.336Z,23.50
2022-08-04T23:09:17.286Z,23.60
2022-08-04T23:11:44.212Z,23.60
2022-08-04T23:14:11.010Z,23.60
2022-08-04T23:16:40.867Z,23.60
2022-08-04T23:19:12.266Z,23.60
2022-08-04T23:21:47.243Z,23.60
2022-08-04T23:24:14.169Z,23.60
2022-08-04T23:26:41.551Z,23.60
2022-08-04T23:29:08.542Z,23.70
2022-08-04T23:31:41.094Z,23.60
2022-08-04T23:34:08.937Z,23.60
2022-08-04T23:36:35.647Z,23.50
2022-08-04T23:39:05.670Z,23.40
2022-08-04T23:41:50.898Z,23.40
2022-08-04T23:44:25.898Z,23.50
2022-08-04T23:48:16.658Z,23.60
2022-08-04T23:49:58.865Z,23.40
2022-08-04T23:52:29.774Z,23.10
2022-08-04T23:54:59.203Z,23.00
2022-08-04T23:57:31.328Z,22.90
